createdAt,value
2023-02-11T00:00:18.984Z,1.50
2023-02-11T00:02:47.903Z,2.55
2023-02-11T00:05:15.542Z,1.73
2023-02-11T00:07:42.696Z,0.20
2023-02-11T00:10:09.989Z,3.22
2023-02-11T00:12:38.336Z,1.80
2023-02-11T00:15:06.203Z,1.00
2023-02-11T00:17:33.747Z,1.35
2023-02-11T00:20:00.907Z,1.00
2023-02-11T00:22:28.105Z,1.10
2023-02-11T00:24:57.084Z,0.40
2023-02-11T00:27:24.505Z,1.45
2023-02-11T00:29:51.685Z,0.70
2023-02-11T00:32:18.830Z,1.55
2023-02-11T00:34:46.054Z,0.30
2023-02-11T00:37:13.716Z,0.57
2023-02-11T00:39:40.992Z,0.65
2023-02-11T00:42:08.229Z,0.77
2023-02-11T00:44:35.625Z,1.60
2023-02-11T00:47:02.736Z,1.38
2023-02-11T00:49:29.895Z,0.63
2023-02-11T00:51:57.043Z,0.70
2023-02-11T00:54:24.178Z,0.70
2023-02-11T00:56:51.374Z,0.85
2023-02-11T00:59:18.481Z,0.43
2023-02-11T01:01:46.648Z,1.00
2023-02-11T01:04:14.059Z,1.05
2023-02-11T01:06:41.218Z,0.60
2023-02-11T01:09:08.318Z,0.52
2023-02-11T01:11:35.599Z,1.13
2023-02-11T01:14:03.202Z,0.30
2023-02-11T01:16:30.433Z,0.95
2023-02-11T01:18:58.943Z,1.23
2023-02-11T01:21:26.470Z,0.75
2023-02-11T01:23:53.657Z,1.10
2023-02-11T01:26:20.936Z,1.40
2023-02-11T01:28:48.160Z,0.88
2023-02-11T01:31:15.287Z,0.60
2023-02-11T01:33:42.595Z,0.77
2023-02-11T01:36:09.859Z,1.13
2023-02-11T01:38:38.168Z,1.13
2023-02-11T01:41:07.328Z,0.73
2023-02-11T01:43:36.416Z,0.55
2023-02-11T01:46:06.101Z,0.73
2023-02-11T01:48:35.237Z,0.35
2023-02-11T01:51:05.422Z,0.95
2023-02-11T01:53:51.845Z,1.30
2023-02-11T01:56:40.039Z,1.73
2023-02-11T01:59:10.969Z,0.77
2023-02-11T02:01:39.780Z,1.15
2023-02-11T02:04:09.168Z,0.40
2023-02-11T02:06:38.685Z,1.33
2023-02-11T02:09:12.044Z,0.88
2023-02-11T02:11:39.285Z,0.30
2023-02-11T02:14:06.471Z,0.40
2023-02-11T02:16:37.435Z,0.20
2023-02-11T02:19:04.661Z,1.17
2023-02-11T02:21:50.346Z,0.98
2023-02-11T02:24:26.514Z,1.45
2023-02-11T02:26:53.843Z,1.98
2023-02-11T02:29:24.047Z,0.93
2023-02-11T02:31:54.345Z,0.55
2023-02-11T02:34:30.960Z,1.65
2023-02-11T02:37:05.470Z,0.65
2023-02-11T02:39:34.566Z,0.35
2023-02-11T02:42:02.333Z,0.43
2023-02-11T02:44:29.818Z,1.38
2023-02-11T02:46:57.490Z,1.67
2023-02-11T02:49:24.668Z,0.17
2023-02-11T02:51:58.934Z,1.05
2023-02-11T02:54:32.309Z,0.95
2023-02-11T02:57:18.150Z,0.90
2023-02-11T03:00:14.622Z,0.70
2023-02-11T03:02:53.175Z,0.45
2023-02-11T03:05:31.814Z,1.15
2023-02-11T03:08:01.306Z,0.95
2023-02-11T03:10:31.124Z,0.30
2023-02-11T03:12:59.118Z,1.30
2023-02-11T03:15:28.058Z,0.75
2023-02-11T03:17:56.684Z,0.55
2023-02-11T03:20:24.193Z,0.88
2023-02-11T03:22:51.302Z,0.93
2023-02-11T03:25:18.859Z,0.40
2023-02-11T03:27:48.032Z,1.00
2023-02-11T03:30:22.760Z,1.08
2023-02-11T03:32:54.446Z,0.50
2023-02-11T03:35:39.643Z,0.40
2023-02-11T03:38:08.605Z,1.35
2023-02-11T03:40:40.287Z,0.77
2023-02-11T03:43:17.438Z,0.40
2023-02-11T03:45:46.250Z,0.90
2023-02-11T03:48:16.822Z,0.57
2023-02-11T03:50:44.863Z,0.40
2023-02-11T03:53:13.092Z,0.43
2023-02-11T03:55:41.303Z,1.30
2023-02-11T03:58:09.134Z,1.20
2023-02-11T04:00:37.533Z,0.57
2023-02-11T04:03:05.345Z,0.90
2023-02-11T04:05:32.951Z,0.90
2023-02-11T04:08:01.087Z,0.65
2023-02-11T04:10:28.477Z,0.50
2023-02-11T04:12:55.552Z,1.02
2023-02-11T04:15:22.754Z,1.25
2023-02-11T04:17:49.954Z,0.85
2023-02-11T04:20:17.070Z,1.25
2023-02-11T04:22:44.344Z,0.40
2023-02-11T04:25:11.794Z,1.00
2023-02-11T04:27:39.203Z,0.52
2023-02-11T04:30:06.839Z,0.68
2023-02-11T04:32:33.979Z,1.00
2023-02-11T04:35:01.079Z,0.45
2023-02-11T04:37:28.507Z,0.57
2023-02-11T04:39:55.608Z,0.50
2023-02-11T04:42:22.754Z,0.52
2023-02-11T04:44:49.982Z,1.00
2023-02-11T04:47:17.229Z,1.10
2023-02-11T04:49:44.413Z,0.98
2023-02-11T04:52:11.872Z,1.00
2023-02-11T04:54:39.633Z,0.65
2023-02-11T04:57:06.936Z,1.35
2023-02-11T04:59:34.167Z,0.45
2023-02-11T05:02:01.368Z,0.50
2023-02-11T05:04:28.618Z,0.63
2023-02-11T05:06:58.655Z,0.82
2023-02-11T05:09:26.024Z,0.40
2023-02-11T05:11:53.997Z,1.00
2023-02-11T05:14:21.252Z,0.50
2023-02-11T05:16:48.600Z,0.45
2023-02-11T05:19:15.775Z,2.97
2023-02-11T05:21:56.588Z,0.88
2023-02-11T05:24:28.672Z,0.85
2023-02-11T05:26:55.938Z,3.05
2023-02-11T05:29:23.050Z,1.33
2023-02-11T05:31:50.243Z,1.70
2023-02-11T05:34:17.497Z,0.85
2023-02-11T05:36:44.616Z,1.67
2023-02-11T05:39:11.739Z,1.60
2023-02-11T05:41:39.025Z,0.47
2023-02-11T05:44:06.128Z,0.30
2023-02-11T05:46:33.285Z,1.23
2023-02-11T05:49:00.570Z,1.27
2023-02-11T05:51:27.720Z,0.95
2023-02-11T05:53:55.757Z,0.63
2023-02-11T05:56:23.022Z,0.80
2023-02-11T05:58:50.166Z,0.43
2023-02-11T06:01:17.328Z,0.75
2023-02-11T06:03:44.669Z,1.77
2023-02-11T06:06:12.539Z,0.88
2023-02-11T06:08:40.057Z,0.45
2023-02-11T06:11:07.404Z,1.73
2023-02-11T06:13:34.555Z,0.65
2023-02-11T06:16:02.400Z,0.43
2023-02-11T06:18:30.618Z,0.40
2023-02-11T06:20:57.713Z,1.15
2023-02-11T06:23:27.979Z,1.20
2023-02-11T06:26:02.160Z,0.55
2023-02-11T06:28:31.449Z,0.95
2023-02-11T06:30:59.043Z,1.55
2023-02-11T06:33:26.513Z,0.95
2023-02-11T06:35:54.866Z,1.75
2023-02-11T06:38:21.990Z,0.85
2023-02-11T06:40:49.512Z,0.65
2023-02-11T06:43:17.035Z,1.30
2023-02-11T06:45:44.370Z,1.50
2023-02-11T06:48:11.621Z,1.63
2023-02-11T06:50:38.914Z,2.00
2023-02-11T06:53:06.035Z,1.10
2023-02-11T06:55:35.357Z,1.10
2023-02-11T06:58:02.520Z,2.00
2023-02-11T07:00:29.659Z,1.00
2023-02-11T07:02:57.416Z,1.48
2023-02-11T07:05:24.716Z,0.93
2023-02-11T07:07:51.920Z,1.45
2023-02-11T07:10:19.074Z,1.98
2023-02-11T07:12:46.211Z,1.65
2023-02-11T07:15:13.360Z,1.30
2023-02-11T07:17:40.542Z,0.98
2023-02-11T07:20:07.790Z,2.63
2023-02-11T07:22:35.528Z,3.00
2023-02-11T07:25:02.757Z,2.53
2023-02-11T07:27:29.909Z,1.75
2023-02-11T07:29:57.045Z,2.35
2023-02-11T07:32:24.352Z,2.42
2023-02-11T07:34:51.495Z,1.85
2023-02-11T07:37:18.792Z,2.28
2023-02-11T07:39:45.856Z,3.17
2023-02-11T07:42:13.048Z,2.42
2023-02-11T07:44:40.189Z,2.08
2023-02-11T07:47:07.627Z,2.25
2023-02-11T07:49:34.864Z,2.55
2023-02-11T07:52:01.963Z,1.15
2023-02-11T07:54:29.312Z,1.80
2023-02-11T07:56:56.485Z,2.95
2023-02-11T07:59:24.903Z,1.88
2023-02-11T08:01:52.474Z,1.55
2023-02-11T08:04:19.658Z,1.60
2023-02-11T08:06:46.865Z,4.82
2023-02-11T08:09:16.689Z,1.35
2023-02-11T08:11:44.191Z,2.65
2023-02-11T08:14:11.733Z,1.85
2023-02-11T08:16:39.340Z,2.83
2023-02-11T08:19:08.861Z,1.85
2023-02-11T08:21:35.975Z,3.38
2023-02-11T08:24:03.840Z,2.65
2023-02-11T08:26:32.812Z,2.00
2023-02-11T08:29:00.128Z,4.25
2023-02-11T08:31:28.878Z,1.90
2023-02-11T08:33:58.213Z,2.30
2023-02-11T08:36:51.726Z,4.00
2023-02-11T08:39:21.068Z,2.22
2023-02-11T08:41:56.952Z,2.55
2023-02-11T08:44:26.418Z,2.00
2023-02-11T08:46:53.989Z,3.50
2023-02-11T08:49:21.614Z,2.60
2023-02-11T08:51:48.855Z,2.15
2023-02-11T08:54:16.364Z,2.85
2023-02-11T08:56:44.140Z,2.45
2023-02-11T08:59:13.507Z,3.15
2023-02-11T09:01:40.866Z,2.92
2023-02-11T09:04:08.107Z,3.10
2023-02-11T09:06:35.363Z,5.18
2023-02-11T09:09:02.616Z,1.38
2023-02-11T09:11:31.650Z,1.45
2023-02-11T09:13:58.872Z,2.47
2023-02-11T09:16:27.485Z,3.15
2023-02-11T09:18:54.915Z,3.53
2023-02-11T09:21:22.082Z,4.15
2023-02-11T09:23:49.821Z,2.97
2023-02-11T09:26:18.890Z,2.53
2023-02-11T09:28:46.390Z,3.08
2023-02-11T09:31:15.333Z,2.90
2023-02-11T09:33:48.004Z,2.25
2023-02-11T09:36:16.576Z,2.00
2023-02-11T09:38:43.786Z,3.47
2023-02-11T09:41:26.622Z,3.83
2023-02-11T09:44:00.923Z,2.38
2023-02-11T09:46:31.920Z,4.63
2023-02-11T09:49:00.341Z,3.95
2023-02-11T09:51:27.509Z,3.85
2023-02-11T09:53:58.721Z,3.97
2023-02-11T09:56:28.910Z,1.48
2023-02-11T09:58:56.063Z,3.28
2023-02-11T10:01:32.393Z,3.38
2023-02-11T10:04:14.732Z,3.50
2023-02-11T10:06:42.083Z,4.30
2023-02-11T10:09:28.038Z,2.88
2023-02-11T10:11:55.446Z,3.22
2023-02-11T10:14:29.905Z,2.58
2023-02-11T10:17:06.878Z,6.00
2023-02-11T10:19:37.029Z,2.75
2023-02-11T10:22:04.194Z,3.00
2023-02-11T10:24:32.250Z,5.30
2023-02-11T10:26:59.816Z,3.92
2023-02-11T10:29:31.636Z,2.55
2023-02-11T10:32:00.191Z,3.95
2023-02-11T10:34:27.320Z,3.80
2023-02-11T10:36:54.504Z,2.72
2023-02-11T10:39:22.862Z,4.03
2023-02-11T10:41:52.956Z,2.53
2023-02-11T10:44:43.103Z,2.90
2023-02-11T10:47:13.716Z,3.22
2023-02-11T10:49:42.079Z,3.08
2023-02-11T10:52:16.378Z,3.97
2023-02-11T10:54:55.987Z,1.98
2023-02-11T10:57:23.582Z,3.97
2023-02-11T10:59:56.397Z,4.22
2023-02-11T11:02:34.789Z,3.22
2023-02-11T11:05:16.651Z,2.42
2023-02-11T11:07:53.352Z,2.97
2023-02-11T11:10:37.340Z,3.22
2023-02-11T11:13:04.655Z,2.90
2023-02-11T11:15:32.430Z,2.10
2023-02-11T11:18:22.416Z,4.28
2023-02-11T11:21:00.504Z,2.38
2023-02-11T11:23:29.034Z,2.60
2023-02-11T11:26:10.061Z,2.03
2023-02-11T11:28:39.057Z,5.38
2023-02-11T11:31:06.718Z,5.25
2023-02-11T11:33:35.007Z,2.90
2023-02-11T11:36:13.306Z,2.40
2023-02-11T11:38:49.119Z,2.38
2023-02-11T11:41:18.278Z,3.13
2023-02-11T11:44:14.751Z,3.72
2023-02-11T11:46:43.077Z,3.63
2023-02-11T11:49:10.167Z,3.35
2023-02-11T11:51:39.268Z,3.33
2023-02-11T11:54:12.485Z,4.28
2023-02-11T11:56:42.840Z,4.40
2023-02-11T11:59:13.811Z,2.33
2023-02-11T12:01:50.228Z,4.40
2023-02-11T12:04:17.424Z,3.90
2023-02-11T12:06:54.600Z,5.35
2023-02-11T12:09:30.875Z,4.10
2023-02-11T12:12:00.782Z,3.35
2023-02-11T12:14:30.883Z,3.10
2023-02-11T12:17:08.597Z,5.25
2023-02-11T12:19:41.581Z,2.78
2023-02-11T12:22:12.686Z,3.72
2023-02-11T12:25:00.372Z,3.55
2023-02-11T12:27:27.498Z,3.50
2023-02-11T12:30:03.855Z,4.65
2023-02-11T12:32:37.792Z,4.97
2023-02-11T12:35:04.961Z,3.25
2023-02-11T12:37:38.224Z,5.03
2023-02-11T12:40:14.436Z,3.13
2023-02-11T12:43:18.845Z,3.50
2023-02-11T12:46:04.752Z,3.78
2023-02-11T12:48:50.455Z,4.20
2023-02-11T12:51:26.745Z,4.70
2023-02-11T12:53:53.936Z,4.25
2023-02-11T12:56:26.901Z,6.07
2023-02-11T12:58:56.740Z,3.53
2023-02-11T13:01:27.006Z,5.50
2023-02-11T13:03:54.117Z,3.53
2023-02-11T13:06:25.700Z,3.80
2023-02-11T13:08:58.495Z,3.47
2023-02-11T13:11:28.543Z,3.45
2023-02-11T13:14:05.499Z,2.55
2023-02-11T13:16:36.015Z,4.80
2023-02-11T13:19:03.861Z,3.15
2023-02-11T13:21:31.024Z,3.72
2023-02-11T13:24:18.751Z,2.83
2023-02-11T13:27:04.481Z,3.25
2023-02-11T13:29:34.857Z,3.58
2023-02-11T13:32:12.285Z,2.80
2023-02-11T13:34:42.557Z,2.10
2023-02-11T13:37:28.575Z,5.10
2023-02-11T13:40:03.495Z,2.40
2023-02-11T13:42:31.597Z,3.58
2023-02-11T13:44:58.937Z,1.98
2023-02-11T13:47:28.996Z,3.30
2023-02-11T13:49:56.394Z,3.20
2023-02-11T13:52:29.287Z,1.27
2023-02-11T13:54:57.862Z,2.70
2023-02-11T13:57:33.607Z,3.33
2023-02-11T14:00:02.411Z,3.47
2023-02-11T14:02:50.546Z,3.38
2023-02-11T14:05:42.307Z,3.72
2023-02-11T14:08:31.007Z,3.35
2023-02-11T14:11:12.472Z,2.70
2023-02-11T14:13:48.734Z,4.57
2023-02-11T14:16:20.491Z,3.58
2023-02-11T14:18:55.599Z,4.88
2023-02-11T14:21:24.278Z,2.95
2023-02-11T14:23:56.137Z,4.00
2023-02-11T14:26:41.927Z,1.92
2023-02-11T14:29:14.121Z,3.95
2023-02-11T14:31:44.672Z,3.10
2023-02-11T14:34:30.945Z,3.25
2023-02-11T14:37:04.216Z,2.83
2023-02-11T14:39:38.656Z,3.50
2023-02-11T14:42:06.935Z,3.00
2023-02-11T14:44:34.692Z,4.50
2023-02-11T14:47:01.882Z,3.65
2023-02-11T14:49:29.355Z,3.25
2023-02-11T14:51:59.449Z,4.80
2023-02-11T14:54:28.184Z,2.67
2023-02-11T14:57:14.337Z,2.58
2023-02-11T14:59:52.954Z,4.43
2023-02-11T15:02:29.609Z,3.88
2023-02-11T15:05:14.260Z,3.45
2023-02-11T15:07:49.193Z,3.40
2023-02-11T15:10:25.581Z,3.42
2023-02-11T15:12:53.585Z,3.00
2023-02-11T15:15:20.825Z,3.28
2023-02-11T15:17:48.461Z,3.92
2023-02-11T15:20:29.125Z,2.97
2023-02-11T15:22:58.340Z,2.83
2023-02-11T15:25:27.784Z,4.03
2023-02-11T15:27:56.672Z,3.65
2023-02-11T15:30:23.793Z,2.85
2023-02-11T15:32:52.202Z,2.22
2023-02-11T15:35:19.524Z,3.38
2023-02-11T15:37:48.317Z,2.67
2023-02-11T15:40:19.063Z,4.00
2023-02-11T15:42:59.902Z,2.25
2023-02-11T15:45:29.929Z,5.95
2023-02-11T15:47:59.881Z,3.33
2023-02-11T15:50:31.858Z,4.35
2023-02-11T15:53:01.131Z,3.75
2023-02-11T15:55:30.527Z,3.10
2023-02-11T15:57:58.994Z,2.20
2023-02-11T16:00:32.985Z,2.28
2023-02-11T16:03:00.369Z,3.33
2023-02-11T16:05:35.495Z,1.98
2023-02-11T16:08:13.491Z,2.25
2023-02-11T16:10:40.695Z,3.75
2023-02-11T16:13:09.166Z,2.45
2023-02-11T16:15:38.364Z,2.00
2023-02-11T16:18:14.629Z,1.60
2023-02-11T16:20:41.993Z,2.08
2023-02-11T16:23:09.248Z,2.00
2023-02-11T16:25:36.451Z,1.80
2023-02-11T16:28:05.050Z,2.15
2023-02-11T16:30:38.023Z,3.42
2023-02-11T16:33:05.674Z,2.72
2023-02-11T16:35:32.944Z,2.55
2023-02-11T16:38:00.088Z,4.25
2023-02-11T16:40:27.666Z,3.00
2023-02-11T16:42:54.729Z,2.88
2023-02-11T16:45:21.836Z,2.55
2023-02-11T16:47:48.996Z,3.72
2023-02-11T16:50:21.487Z,4.03
2023-02-11T16:52:48.983Z,2.90
2023-02-11T16:55:16.908Z,2.50
2023-02-11T16:57:44.138Z,3.30
2023-02-11T17:00:12.007Z,5.20
2023-02-11T17:02:40.759Z,2.80
2023-02-11T17:05:16.174Z,4.95
2023-02-11T17:07:43.449Z,3.80
2023-02-11T17:10:19.270Z,3.38
2023-02-11T17:12:46.364Z,5.72
2023-02-11T17:15:13.460Z,3.63
2023-02-11T17:17:40.624Z,3.40
2023-02-11T17:20:09.361Z,4.15
2023-02-11T17:22:36.556Z,4.00
2023-02-11T17:25:03.736Z,4.43
2023-02-11T17:27:31.002Z,4.57
2023-02-11T17:29:58.265Z,4.30
2023-02-11T17:32:25.465Z,4.35
2023-02-11T17:34:53.820Z,4.32
2023-02-11T17:37:20.983Z,5.50
2023-02-11T17:39:49.830Z,2.92
2023-02-11T17:42:19.211Z,2.33
2023-02-11T17:44:46.722Z,2.90
2023-02-11T17:47:13.958Z,2.42
2023-02-11T17:49:41.366Z,2.80
2023-02-11T17:52:08.600Z,3.13
2023-02-11T17:54:35.779Z,3.50
2023-02-11T17:57:03.067Z,1.70
2023-02-11T17:59:35.287Z,3.03
2023-02-11T18:02:03.473Z,3.60
2023-02-11T18:04:31.222Z,7.78
2023-02-11T18:06:58.489Z,2.88
2023-02-11T18:09:26.683Z,4.88
2023-02-11T18:11:54.266Z,3.50
2023-02-11T18:14:21.849Z,2.92
2023-02-11T18:16:52.772Z,5.78
2023-02-11T18:19:20.167Z,4.07
2023-02-11T18:21:50.190Z,2.65
2023-02-11T18:24:17.430Z,3.53
2023-02-11T18:26:44.630Z,2.75
2023-02-11T18:29:11.757Z,2.78
2023-02-11T18:31:39.545Z,1.80
2023-02-11T18:34:07.517Z,4.53
2023-02-11T18:36:34.789Z,3.30
2023-02-11T18:39:01.871Z,3.88
2023-02-11T18:41:29.186Z,4.18
2023-02-11T18:43:58.701Z,3.88
2023-02-11T18:46:25.942Z,1.80
2023-02-11T18:48:55.964Z,2.65
2023-02-11T18:51:23.370Z,4.60
2023-02-11T18:53:50.838Z,6.15
2023-02-11T18:56:20.326Z,2.58
2023-02-11T18:58:47.717Z,1.30
2023-02-11T19:01:20.567Z,4.00
2023-02-11T19:03:48.410Z,1.70
2023-02-11T19:06:16.822Z,2.85
2023-02-11T19:08:43.989Z,3.05
2023-02-11T19:11:11.251Z,3.00
2023-02-11T19:13:38.631Z,5.85
2023-02-11T19:16:08.736Z,4.75
2023-02-11T19:18:38.689Z,3.55
2023-02-11T19:21:10.221Z,2.97
2023-02-11T19:23:37.793Z,4.57
2023-02-11T19:26:06.457Z,2.97
2023-02-11T19:28:34.141Z,4.82
2023-02-11T19:31:08.872Z,3.00
2023-02-11T19:33:36.318Z,1.77
2023-02-11T19:36:04.647Z,2.30
2023-02-11T19:38:31.883Z,2.78
2023-02-11T19:40:59.371Z,3.53
2023-02-11T19:43:26.662Z,3.38
2023-02-11T19:45:56.544Z,4.05
2023-02-11T19:48:26.850Z,3.80
2023-02-11T19:50:54.586Z,5.25
2023-02-11T19:53:21.767Z,2.85
2023-02-11T19:55:49.719Z,4.35
2023-02-11T19:58:18.556Z,2.70
2023-02-11T20:00:45.754Z,1.58
2023-02-11T20:03:12.858Z,2.78
2023-02-11T20:05:42.306Z,2.65
2023-02-11T20:08:09.493Z,2.90
2023-02-11T20:10:36.583Z,1.65
2023-02-11T20:13:03.965Z,1.90
2023-02-11T20:15:31.512Z,3.40
2023-02-11T20:17:58.620Z,2.47
2023-02-11T20:20:25.794Z,1.77
2023-02-11T20:22:52.854Z,3.28
2023-02-11T20:25:20.052Z,1.98
2023-02-11T20:27:47.206Z,4.30
2023-02-11T20:30:15.626Z,2.10
2023-02-11T20:32:42.760Z,3.10
2023-02-11T20:35:10.079Z,2.10
2023-02-11T20:37:38.681Z,2.78
2023-02-11T20:40:06.807Z,5.63
2023-02-11T20:42:33.924Z,0.75
2023-02-11T20:45:01.157Z,1.95
2023-02-11T20:47:28.207Z,3.83
2023-02-11T20:49:56.294Z,2.20
2023-02-11T20:52:23.445Z,3.00
2023-02-11T20:54:50.573Z,2.13
2023-02-11T20:57:17.679Z,2.80
2023-02-11T20:59:44.969Z,2.38
2023-02-11T21:02:13.384Z,2.10
2023-02-11T21:04:40.600Z,2.05
2023-02-11T21:07:07.831Z,3.13
2023-02-11T21:09:35.106Z,2.72
2023-02-11T21:12:02.605Z,2.25
2023-02-11T21:14:30.169Z,1.85
2023-02-11T21:16:57.501Z,2.38
2023-02-11T21:19:24.662Z,1.90
2023-02-11T21:21:52.152Z,4.40
2023-02-11T21:24:20.626Z,1.73
2023-02-11T21:26:47.939Z,1.70
2023-02-11T21:29:15.168Z,2.50
2023-02-11T21:31:42.484Z,2.00
2023-02-11T21:34:10.618Z,3.42
2023-02-11T21:36:37.776Z,2.65
2023-02-11T21:39:05.911Z,4.10
2023-02-11T21:41:33.308Z,2.25
2023-02-11T21:44:00.511Z,3.33
2023-02-11T21:46:28.033Z,2.53
2023-02-11T21:48:55.419Z,2.53
2023-02-11T21:51:26.531Z,2.90
2023-02-11T21:53:57.679Z,1.70
2023-02-11T21:56:28.126Z,2.20
2023-02-11T21:58:57.186Z,2.00
2023-02-11T22:01:27.364Z,2.63
2023-02-11T22:03:54.706Z,1.42
2023-02-11T22:06:26.393Z,1.70
2023-02-11T22:08:55.721Z,1.98
2023-02-11T22:11:22.973Z,1.27
2023-02-11T22:13:53.480Z,1.77
2023-02-11T22:16:20.626Z,1.67
2023-02-11T22:18:47.916Z,1.20
2023-02-11T22:21:19.294Z,1.73
2023-02-11T22:23:47.078Z,2.15
2023-02-11T22:26:16.161Z,1.17
2023-02-11T22:28:43.814Z,1.60
2023-02-11T22:31:15.863Z,2.97
2023-02-11T22:33:43.229Z,2.78
2023-02-11T22:36:17.849Z,2.00
2023-02-11T22:38:45.104Z,2.53
2023-02-11T22:41:12.769Z,1.98
2023-02-11T22:43:40.162Z,1.50
2023-02-11T22:46:08.093Z,1.42
2023-02-11T22:48:36.225Z,1.40
2023-02-11T22:51:26.455Z,2.05
2023-02-11T22:53:57.508Z,1.35
2023-02-11T22:56:25.514Z,1.15
2023-02-11T22:58:53.729Z,1.17
2023-02-11T23:01:21.212Z,0.90
2023-02-11T23:03:48.398Z,3.20
2023-02-11T23:06:15.585Z,1.85
2023-02-11T23:08:43.380Z,1.73
2023-02-11T23:11:18.616Z,1.67
2023-02-11T23:13:46.195Z,1.25
2023-02-11T23:16:14.868Z,3.30
2023-02-11T23:18:42.778Z,1.67
2023-02-11T23:21:12.606Z,3.30
2023-02-11T23:23:40.302Z,0.95
2023-02-11T23:26:10.748Z,2.42
2023-02-11T23:28:38.266Z,3.08
2023-02-11T23:31:16.051Z,5.53
2023-02-11T23:33:43.598Z,2.88
2023-02-11T23:36:11.134Z,1.63
2023-02-11T23:38:38.521Z,2.35
2023-02-11T23:41:05.861Z,1.20
2023-02-11T23:43:33.030Z,2.30
2023-02-11T23:46:00.249Z,1.90
2023-02-11T23:48:27.399Z,4.15
2023-02-11T23:50:54.563Z,3.20
2023-02-11T23:53:21.709Z,2.13
2023-02-11T23:55:48.873Z,1.75
2023-02-11T23:58:16.259Z,2.58
